sensor_id;sensor_type;location;lat;lon;timestamp;P1;durP1;ratioP1;P2;durP2;ratioP2
18931;SDS011;9598;50.954;3.112;2022-08-14T00:03:36;5.85;;;3.53;;
18931;SDS011;9598;50.954;3.112;2022-08-14T00:08:39;3.67;;;3.40;;
18931;SDS011;9598;50.954;3.112;2022-08-14T00:13:43;3.47;;;3.28;;
18931;SDS011;9598;50.954;3.112;2022-08-14T00:18:47;5.22;;;3.88;;
18931;SDS011;9598;50.954;3.112;2022-08-14T00:23:49;4.20;;;3.80;;
18931;SDS011;9598;50.954;3.112;2022-08-14T00:28:54;4.90;;;3.83;;
18931;SDS011;9598;50.954;3.112;2022-08-14T00:33:56;4.43;;;4.03;;
18931;SDS011;9598;50.954;3.112;2022-08-14T00:38:58;4.63;;;4.25;;
18931;SDS011;9598;50.954;3.112;2022-08-14T00:44:02;4.47;;;4.07;;
18931;SDS011;9598;50.954;3.112;2022-08-14T00:49:04;6.22;;;4.20;;
18931;SDS011;9598;50.954;3.112;2022-08-14T00:54:07;4.65;;;4.25;;
18931;SDS011;9598;50.954;3.112;2022-08-14T00:59:10;4.80;;;4.40;;
18931;SDS011;9598;50.954;3.112;2022-08-14T01:04:12;4.50;;;4.07;;
18931;SDS011;9598;50.954;3.112;2022-08-14T01:09:15;5.07;;;4.70;;
18931;SDS011;9598;50.954;3.112;2022-08-14T01:14:23;5.40;;;4.90;;
18931;SDS011;9598;50.954;3.112;2022-08-14T01:19:25;5.40;;;4.90;;
18931;SDS011;9598;50.954;3.112;2022-08-14T01:24:46;5.95;;;5.43;;
18931;SDS011;9598;50.954;3.112;2022-08-14T01:29:51;6.13;;;5.57;;
18931;SDS011;9598;50.954;3.112;2022-08-14T01:34:55;6.00;;;5.47;;
18931;SDS011;9598;50.954;3.112;2022-08-14T01:39:59;6.50;;;5.90;;
18931;SDS011;9598;50.954;3.112;2022-08-14T01:45:02;6.57;;;5.97;;
18931;SDS011;9598;50.954;3.112;2022-08-14T01:50:11;7.00;;;6.30;;
18931;SDS011;9598;50.954;3.112;2022-08-14T01:55:17;6.95;;;6.35;;
18931;SDS011;9598;50.954;3.112;2022-08-14T02:00:20;8.02;;;7.32;;
18931;SDS011;9598;50.954;3.112;2022-08-14T02:05:22;8.43;;;7.72;;
18931;SDS011;9598;50.954;3.112;2022-08-14T02:10:30;8.48;;;7.78;;
18931;SDS011;9598;50.954;3.112;2022-08-14T02:15:34;10.55;;;9.75;;
18931;SDS011;9598;50.954;3.112;2022-08-14T02:20:40;10.25;;;9.52;;
18931;SDS011;9598;50.954;3.112;2022-08-14T02:25:43;10.95;;;10.13;;
18931;SDS011;9598;50.954;3.112;2022-08-14T02:30:45;11.35;;;10.55;;
18931;SDS011;9598;50.954;3.112;2022-08-14T02:35:47;12.07;;;11.18;;
18931;SDS011;9598;50.954;3.112;2022-08-14T02:40:52;13.20;;;11.98;;
18931;SDS011;9598;50.954;3.112;2022-08-14T02:45:54;13.23;;;12.23;;
18931;SDS011;9598;50.954;3.112;2022-08-14T02:50:56;12.25;;;11.25;;
18931;SDS011;9598;50.954;3.112;2022-08-14T02:56:00;12.52;;;11.60;;
18931;SDS011;9598;50.954;3.112;2022-08-14T03:01:03;12.43;;;11.52;;
18931;SDS011;9598;50.954;3.112;2022-08-14T03:06:06;12.13;;;11.02;;
18931;SDS011;9598;50.954;3.112;2022-08-14T03:11:12;12.32;;;11.32;;
18931;SDS011;9598;50.954;3.112;2022-08-14T03:16:15;12.00;;;11.20;;
18931;SDS011;9598;50.954;3.112;2022-08-14T03:21:19;13.13;;;12.02;;
18931;SDS011;9598;50.954;3.112;2022-08-14T03:26:23;13.65;;;12.52;;
18931;SDS011;9598;50.954;3.112;2022-08-14T03:31:26;12.88;;;11.93;;
18931;SDS011;9598;50.954;3.112;2022-08-14T03:36:29;14.02;;;12.20;;
18931;SDS011;9598;50.954;3.112;2022-08-14T03:41:34;12.95;;;11.95;;
18931;SDS011;9598;50.954;3.112;2022-08-14T03:46:36;13.00;;;11.98;;
18931;SDS011;9598;50.954;3.112;2022-08-14T03:51:42;12.98;;;11.75;;
18931;SDS011;9598;50.954;3.112;2022-08-14T03:56:46;14.35;;;13.07;;
18931;SDS011;9598;50.954;3.112;2022-08-14T04:01:48;13.23;;;12.15;;
18931;SDS011;9598;50.954;3.112;2022-08-14T04:06:51;14.00;;;12.68;;
18931;SDS011;9598;50.954;3.112;2022-08-14T04:11:55;19.70;;;12.50;;
18931;SDS011;9598;50.954;3.112;2022-08-14T04:16:59;14.32;;;12.48;;
18931;SDS011;9598;50.954;3.112;2022-08-14T04:22:01;20.98;;;12.43;;
18931;SDS011;9598;50.954;3.112;2022-08-14T04:27:04;55.22;;;15.82;;
18931;SDS011;9598;50.954;3.112;2022-08-14T04:32:08;34.78;;;13.55;;
18931;SDS011;9598;50.954;3.112;2022-08-14T04:37:11;17.05;;;12.30;;
18931;SDS011;9598;50.954;3.112;2022-08-14T04:42:31;19.80;;;12.32;;
18931;SDS011;9598;50.954;3.112;2022-08-14T04:47:51;14.02;;;12.82;;
18931;SDS011;9598;50.954;3.112;2022-08-14T04:53:12;18.10;;;12.95;;
18931;SDS011;9598;50.954;3.112;2022-08-14T04:58:17;22.65;;;13.15;;
18931;SDS011;9598;50.954;3.112;2022-08-14T05:03:22;19.05;;;12.57;;
18931;SDS011;9598;50.954;3.112;2022-08-14T05:08:28;16.92;;;13.50;;
18931;SDS011;9598;50.954;3.112;2022-08-14T05:13:32;19.08;;;13.30;;
18931;SDS011;9598;50.954;3.112;2022-08-14T05:18:37;13.98;;;12.77;;
18931;SDS011;9598;50.954;3.112;2022-08-14T05:23:40;13.65;;;12.45;;
18931;SDS011;9598;50.954;3.112;2022-08-14T05:28:44;17.98;;;13.10;;
18931;SDS011;9598;50.954;3.112;2022-08-14T05:33:47;13.50;;;12.20;;
18931;SDS011;9598;50.954;3.112;2022-08-14T05:38:49;13.13;;;11.98;;
18931;SDS011;9598;50.954;3.112;2022-08-14T05:43:54;12.95;;;11.85;;
18931;SDS011;9598;50.954;3.112;2022-08-14T05:48:57;12.98;;;11.75;;
18931;SDS011;9598;50.954;3.112;2022-08-14T05:53:59;11.23;;;10.20;;
18931;SDS011;9598;50.954;3.112;2022-08-14T05:59:02;12.55;;;8.05;;
18931;SDS011;9598;50.954;3.112;2022-08-14T06:04:05;14.55;;;8.88;;
18931;SDS011;9598;50.954;3.112;2022-08-14T06:09:07;8.13;;;7.07;;
18931;SDS011;9598;50.954;3.112;2022-08-14T06:14:11;10.90;;;7.40;;
18931;SDS011;9598;50.954;3.112;2022-08-14T06:19:13;10.65;;;7.03;;
18931;SDS011;9598;50.954;3.112;2022-08-14T06:24:15;8.75;;;6.40;;
18931;SDS011;9598;50.954;3.112;2022-08-14T06:29:19;7.47;;;6.72;;
18931;SDS011;9598;50.954;3.112;2022-08-14T06:34:21;6.82;;;6.07;;
18931;SDS011;9598;50.954;3.112;2022-08-14T06:39:23;8.82;;;6.10;;
18931;SDS011;9598;50.954;3.112;2022-08-14T06:44:27;5.55;;;5.03;;
18931;SDS011;9598;50.954;3.112;2022-08-14T06:49:29;7.28;;;4.95;;
18931;SDS011;9598;50.954;3.112;2022-08-14T06:54:31;5.05;;;4.68;;
18931;SDS011;9598;50.954;3.112;2022-08-14T06:59:36;5.80;;;5.20;;
18931;SDS011;9598;50.954;3.112;2022-08-14T07:04:38;4.72;;;4.32;;
18931;SDS011;9598;50.954;3.112;2022-08-14T07:09:57;5.88;;;3.92;;
18931;SDS011;9598;50.954;3.112;2022-08-14T07:15:01;4.20;;;3.30;;
18931;SDS011;9598;50.954;3.112;2022-08-14T07:20:04;7.22;;;6.63;;
18931;SDS011;9598;50.954;3.112;2022-08-14T07:25:06;8.38;;;7.68;;
18931;SDS011;9598;50.954;3.112;2022-08-14T07:30:11;7.82;;;7.13;;
18931;SDS011;9598;50.954;3.112;2022-08-14T07:35:13;7.47;;;6.97;;
18931;SDS011;9598;50.954;3.112;2022-08-14T07:40:15;6.45;;;5.20;;
18931;SDS011;9598;50.954;3.112;2022-08-14T07:45:19;6.60;;;6.10;;
18931;SDS011;9598;50.954;3.112;2022-08-14T07:50:21;7.35;;;6.65;;
18931;SDS011;9598;50.954;3.112;2022-08-14T07:55:23;7.70;;;6.90;;
18931;SDS011;9598;50.954;3.112;2022-08-14T08:00:26;6.47;;;5.95;;
18931;SDS011;9598;50.954;3.112;2022-08-14T08:05:29;7.38;;;5.93;;
18931;SDS011;9598;50.954;3.112;2022-08-14T08:10:32;4.90;;;4.50;;
18931;SDS011;9598;50.954;3.112;2022-08-14T08:15:37;6.45;;;4.40;;
18931;SDS011;9598;50.954;3.112;2022-08-14T08:20:41;4.25;;;3.92;;
18931;SDS011;9598;50.954;3.112;2022-08-14T08:25:46;4.45;;;4.05;;
18931;SDS011;9598;50.954;3.112;2022-08-14T08:30:52;3.90;;;3.63;;
18931;SDS011;9598;50.954;3.112;2022-08-14T08:35:56;4.78;;;4.38;;
18931;SDS011;9598;50.954;3.112;2022-08-14T08:41:00;5.10;;;4.20;;
18931;SDS011;9598;50.954;3.112;2022-08-14T08:46:04;5.03;;;4.63;;
18931;SDS011;9598;50.954;3.112;2022-08-14T08:51:08;4.60;;;4.20;;
18931;SDS011;9598;50.954;3.112;2022-08-14T08:56:20;4.78;;;4.40;;
18931;SDS011;9598;50.954;3.112;2022-08-14T09:01:35;5.50;;;4.28;;
18931;SDS011;9598;50.954;3.112;2022-08-14T09:06:42;4.60;;;3.55;;
18931;SDS011;9598;50.954;3.112;2022-08-14T09:11:44;4.18;;;3.10;;
18931;SDS011;9598;50.954;3.112;2022-08-14T09:16:48;3.40;;;3.13;;
18931;SDS011;9598;50.954;3.112;2022-08-14T09:21:50;4.43;;;3.20;;
18931;SDS011;9598;50.954;3.112;2022-08-14T09:26:53;3.83;;;3.30;;
18931;SDS011;9598;50.954;3.112;2022-08-14T09:31:57;5.53;;;3.90;;
18931;SDS011;9598;50.954;3.112;2022-08-14T09:37:10;3.38;;;3.10;;
18931;SDS011;9598;50.954;3.112;2022-08-14T09:42:40;3.97;;;3.15;;
18931;SDS011;9598;50.954;3.112;2022-08-14T09:47:49;3.20;;;2.60;;
18931;SDS011;9598;50.954;3.112;2022-08-14T09:52:54;3.03;;;2.83;;
18931;SDS011;9598;50.954;3.112;2022-08-14T09:58:09;3.75;;;3.30;;
18931;SDS011;9598;50.954;3.112;2022-08-14T10:03:25;3.05;;;2.80;;
18931;SDS011;9598;50.954;3.112;2022-08-14T10:08:39;3.80;;;2.88;;
18931;SDS011;9598;50.954;3.112;2022-08-14T10:13:44;2.30;;;2.08;;
18931;SDS011;9598;50.954;3.112;2022-08-14T10:18:49;4.80;;;2.42;;
18931;SDS011;9598;50.954;3.112;2022-08-14T10:24:04;3.65;;;2.38;;
18931;SDS011;9598;50.954;3.112;2022-08-14T10:29:09;2.40;;;2.20;;
18931;SDS011;9598;50.954;3.112;2022-08-14T10:34:18;2.60;;;2.42;;
18931;SDS011;9598;50.954;3.112;2022-08-14T10:39:22;2.95;;;2.28;;
18931;SDS011;9598;50.954;3.112;2022-08-14T10:44:33;3.17;;;2.20;;
18931;SDS011;9598;50.954;3.112;2022-08-14T10:49:40;2.88;;;2.30;;
18931;SDS011;9598;50.954;3.112;2022-08-14T10:54:49;3.42;;;2.05;;
18931;SDS011;9598;50.954;3.112;2022-08-14T10:59:53;3.90;;;2.03;;
18931;SDS011;9598;50.954;3.112;2022-08-14T11:04:59;2.28;;;1.60;;
18931;SDS011;9598;50.954;3.112;2022-08-14T11:10:05;2.30;;;2.10;;
18931;SDS011;9598;50.954;3.112;2022-08-14T11:15:09;2.53;;;2.10;;
18931;SDS011;9598;50.954;3.112;2022-08-14T11:20:14;5.57;;;2.30;;
18931;SDS011;9598;50.954;3.112;2022-08-14T11:25:17;3.05;;;2.00;;
18931;SDS011;9598;50.954;3.112;2022-08-14T11:30:23;2.15;;;1.92;;
18931;SDS011;9598;50.954;3.112;2022-08-14T11:35:28;3.47;;;2.00;;
18931;SDS011;9598;50.954;3.112;2022-08-14T11:40:31;2.17;;;1.90;;
18931;SDS011;9598;50.954;3.112;2022-08-14T11:45:35;2.40;;;2.20;;
18931;SDS011;9598;50.954;3.112;2022-08-14T11:50:39;2.67;;;1.67;;
18931;SDS011;9598;50.954;3.112;2022-08-14T11:55:42;3.50;;;2.03;;
18931;SDS011;9598;50.954;3.112;2022-08-14T12:00:45;1.90;;;1.70;;
18931;SDS011;9598;50.954;3.112;2022-08-14T12:05:49;1.60;;;1.50;;
18931;SDS011;9598;50.954;3.112;2022-08-14T12:11:08;3.75;;;2.10;;
18931;SDS011;9598;50.954;3.112;2022-08-14T12:16:13;2.65;;;1.95;;
18931;SDS011;9598;50.954;3.112;2022-08-14T12:21:18;2.03;;;1.83;;
18931;SDS011;9598;50.954;3.112;2022-08-14T12:26:23;1.75;;;1.65;;
18931;SDS011;9598;50.954;3.112;2022-08-14T12:31:27;1.85;;;1.73;;
18931;SDS011;9598;50.954;3.112;2022-08-14T12:36:30;2.72;;;1.65;;
18931;SDS011;9598;50.954;3.112;2022-08-14T12:41:32;2.03;;;1.70;;
18931;SDS011;9598;50.954;3.112;2022-08-14T12:46:36;1.80;;;1.70;;
18931;SDS011;9598;50.954;3.112;2022-08-14T12:51:41;1.80;;;1.70;;
18931;SDS011;9598;50.954;3.112;2022-08-14T12:56:44;7.88;;;3.30;;
18931;SDS011;9598;50.954;3.112;2022-08-14T13:01:47;4.15;;;2.00;;
18931;SDS011;9598;50.954;3.112;2022-08-14T13:07:00;2.17;;;2.08;;
18931;SDS011;9598;50.954;3.112;2022-08-14T13:12:06;3.83;;;2.30;;
18931;SDS011;9598;50.954;3.112;2022-08-14T13:17:09;3.25;;;2.60;;
18931;SDS011;9598;50.954;3.112;2022-08-14T13:22:14;2.85;;;2.40;;
18931;SDS011;9598;50.954;3.112;2022-08-14T13:27:18;5.57;;;2.40;;
18931;SDS011;9598;50.954;3.112;2022-08-14T13:32:22;2.45;;;2.22;;
18931;SDS011;9598;50.954;3.112;2022-08-14T13:37:26;1.95;;;1.83;;
18931;SDS011;9598;50.954;3.112;2022-08-14T13:42:30;1.73;;;1.63;;
18931;SDS011;9598;50.954;3.112;2022-08-14T13:47:32;3.30;;;1.80;;
18931;SDS011;9598;50.954;3.112;2022-08-14T13:52:40;2.88;;;1.90;;
18931;SDS011;9598;50.954;3.112;2022-08-14T13:57:51;2.47;;;1.98;;
18931;SDS011;9598;50.954;3.112;2022-08-14T14:02:57;1.75;;;1.65;;
18931;SDS011;9598;50.954;3.112;2022-08-14T14:08:02;1.90;;;1.80;;
18931;SDS011;9598;50.954;3.112;2022-08-14T14:13:06;6.40;;;2.22;;
18931;SDS011;9598;50.954;3.112;2022-08-14T14:18:09;3.63;;;1.85;;
18931;SDS011;9598;50.954;3.112;2022-08-14T14:23:14;10.07;;;2.33;;
18931;SDS011;9598;50.954;3.112;2022-08-14T14:28:17;4.10;;;1.88;;
18931;SDS011;9598;50.954;3.112;2022-08-14T14:33:21;2.40;;;1.70;;
18931;SDS011;9598;50.954;3.112;2022-08-14T14:38:26;2.20;;;1.42;;
18931;SDS011;9598;50.954;3.112;2022-08-14T14:43:34;1.67;;;1.55;;
18931;SDS011;9598;50.954;3.112;2022-08-14T14:48:44;2.92;;;1.52;;
18931;SDS011;9598;50.954;3.112;2022-08-14T14:53:47;4.50;;;1.98;;
18931;SDS011;9598;50.954;3.112;2022-08-14T14:58:50;1.60;;;1.50;;
18931;SDS011;9598;50.954;3.112;2022-08-14T15:03:53;2.10;;;1.52;;
18931;SDS011;9598;50.954;3.112;2022-08-14T15:08:56;1.80;;;1.70;;
18931;SDS011;9598;50.954;3.112;2022-08-14T15:13:59;2.53;;;1.70;;
18931;SDS011;9598;50.954;3.112;2022-08-14T15:19:01;1.73;;;1.60;;
18931;SDS011;9598;50.954;3.112;2022-08-14T15:24:05;1.92;;;1.48;;
18931;SDS011;9598;50.954;3.112;2022-08-14T15:29:07;12.27;;;2.35;;
18931;SDS011;9598;50.954;3.112;2022-08-14T15:34:09;2.72;;;2.05;;
18931;SDS011;9598;50.954;3.112;2022-08-14T15:39:13;2.70;;;2.08;;
18931;SDS011;9598;50.954;3.112;2022-08-14T15:44:16;2.20;;;2.05;;
18931;SDS011;9598;50.954;3.112;2022-08-14T15:49:18;3.88;;;2.10;;
18931;SDS011;9598;50.954;3.112;2022-08-14T15:54:21;8.95;;;2.70;;
18931;SDS011;9598;50.954;3.112;2022-08-14T15:59:25;2.38;;;1.90;;
18931;SDS011;9598;50.954;3.112;2022-08-14T16:04:48;1.95;;;1.80;;
18931;SDS011;9598;50.954;3.112;2022-08-14T16:09:51;4.07;;;1.88;;
18931;SDS011;9598;50.954;3.112;2022-08-14T16:14:53;2.70;;;2.10;;
18931;SDS011;9598;50.954;3.112;2022-08-14T16:19:55;11.05;;;3.72;;
18931;SDS011;9598;50.954;3.112;2022-08-14T16:25:02;2.20;;;1.95;;
18931;SDS011;9598;50.954;3.112;2022-08-14T16:30:08;2.08;;;1.75;;
18931;SDS011;9598;50.954;3.112;2022-08-14T16:35:11;2.22;;;2.03;;
18931;SDS011;9598;50.954;3.112;2022-08-14T16:40:15;2.70;;;1.70;;
18931;SDS011;9598;50.954;3.112;2022-08-14T16:45:17;4.40;;;2.20;;
18931;SDS011;9598;50.954;3.112;2022-08-14T16:50:23;2.25;;;2.10;;
18931;SDS011;9598;50.954;3.112;2022-08-14T16:55:27;2.47;;;2.28;;
18931;SDS011;9598;50.954;3.112;2022-08-14T17:00:31;9.40;;;2.60;;
18931;SDS011;9598;50.954;3.112;2022-08-14T17:05:36;3.63;;;2.53;;
18931;SDS011;9598;50.954;3.112;2022-08-14T17:10:58;2.15;;;2.00;;
18931;SDS011;9598;50.954;3.112;2022-08-14T17:16:03;2.42;;;1.80;;
18931;SDS011;9598;50.954;3.112;2022-08-14T17:21:16;2.20;;;1.90;;
18931;SDS011;9598;50.954;3.112;2022-08-14T17:26:30;3.08;;;2.25;;
18931;SDS011;9598;50.954;3.112;2022-08-14T17:31:37;2.15;;;1.92;;
18931;SDS011;9598;50.954;3.112;2022-08-14T17:36:41;2.22;;;1.98;;
18931;SDS011;9598;50.954;3.112;2022-08-14T17:41:50;3.45;;;2.03;;
18931;SDS011;9598;50.954;3.112;2022-08-14T17:46:57;3.95;;;2.50;;
18931;SDS011;9598;50.954;3.112;2022-08-14T17:52:03;3.78;;;2.20;;
18931;SDS011;9598;50.954;3.112;2022-08-14T17:57:10;3.83;;;2.20;;
18931;SDS011;9598;50.954;3.112;2022-08-14T18:02:14;3.25;;;2.00;;
18931;SDS011;9598;50.954;3.112;2022-08-14T18:07:21;5.15;;;2.70;;
18931;SDS011;9598;50.954;3.112;2022-08-14T18:12:25;3.72;;;2.38;;
18931;SDS011;9598;50.954;3.112;2022-08-14T18:17:32;2.20;;;2.00;;
18931;SDS011;9598;50.954;3.112;2022-08-14T18:22:35;2.78;;;1.92;;
18931;SDS011;9598;50.954;3.112;2022-08-14T18:27:39;4.15;;;2.22;;
18931;SDS011;9598;50.954;3.112;2022-08-14T18:32:45;10.27;;;2.72;;
18931;SDS011;9598;50.954;3.112;2022-08-14T18:37:49;4.95;;;2.20;;
18931;SDS011;9598;50.954;3.112;2022-08-14T18:43:13;10.73;;;2.83;;
18931;SDS011;9598;50.954;3.112;2022-08-14T18:48:42;2.40;;;2.20;;
18931;SDS011;9598;50.954;3.112;2022-08-14T18:53:54;2.50;;;2.08;;
18931;SDS011;9598;50.954;3.112;2022-08-14T18:59:02;3.75;;;3.25;;
18931;SDS011;9598;50.954;3.112;2022-08-14T19:04:04;4.22;;;2.85;;
18931;SDS011;9598;50.954;3.112;2022-08-14T19:09:06;3.28;;;2.80;;
18931;SDS011;9598;50.954;3.112;2022-08-14T19:14:11;4.15;;;2.80;;
18931;SDS011;9598;50.954;3.112;2022-08-14T19:19:14;3.80;;;2.97;;
18931;SDS011;9598;50.954;3.112;2022-08-14T19:24:17;3.45;;;3.00;;
18931;SDS011;9598;50.954;3.112;2022-08-14T19:29:25;3.25;;;3.03;;
18931;SDS011;9598;50.954;3.112;2022-08-14T19:34:33;8.10;;;3.58;;
18931;SDS011;9598;50.954;3.112;2022-08-14T19:39:48;4.00;;;2.85;;
18931;SDS011;9598;50.954;3.112;2022-08-14T19:44:54;3.03;;;2.70;;
18931;SDS011;9598;50.954;3.112;2022-08-14T19:49:56;3.33;;;2.67;;
18931;SDS011;9598;50.954;3.112;2022-08-14T19:54:59;3.60;;;3.00;;
18931;SDS011;9598;50.954;3.112;2022-08-14T20:00:04;2.85;;;2.65;;
18931;SDS011;9598;50.954;3.112;2022-08-14T20:05:12;4.75;;;2.88;;
18931;SDS011;9598;50.954;3.112;2022-08-14T20:10:25;3.13;;;2.83;;
18931;SDS011;9598;50.954;3.112;2022-08-14T20:15:32;3.10;;;2.67;;
18931;SDS011;9598;50.954;3.112;2022-08-14T20:20:35;6.05;;;2.55;;
18931;SDS011;9598;50.954;3.112;2022-08-14T20:25:39;2.53;;;2.33;;
18931;SDS011;9598;50.954;3.112;2022-08-14T20:30:44;5.43;;;2.92;;
18931;SDS011;9598;50.954;3.112;2022-08-14T20:35:47;2.65;;;2.20;;
18931;SDS011;9598;50.954;3.112;2022-08-14T20:40:52;3.63;;;2.20;;
18931;SDS011;9598;50.954;3.112;2022-08-14T20:45:56;3.42;;;2.40;;
18931;SDS011;9598;50.954;3.112;2022-08-14T20:56:23;2.58;;;2.38;;
18931;SDS011;9598;50.954;3.112;2022-08-14T21:01:32;4.78;;;2.20;;
18931;SDS011;9598;50.954;3.112;2022-08-14T21:06:38;2.45;;;2.25;;
18931;SDS011;9598;50.954;3.112;2022-08-14T21:11:41;3.17;;;2.72;;
18931;SDS011;9598;50.954;3.112;2022-08-14T21:16:50;4.72;;;2.42;;
18931;SDS011;9598;50.954;3.112;2022-08-14T21:21:53;3.08;;;2.63;;
18931;SDS011;9598;50.954;3.112;2022-08-14T21:26:58;2.60;;;2.40;;
18931;SDS011;9598;50.954;3.112;2022-08-14T21:32:04;3.08;;;2.78;;
18931;SDS011;9598;50.954;3.112;2022-08-14T21:37:06;2.50;;;2.33;;
18931;SDS011;9598;50.954;3.112;2022-08-14T21:42:09;2.78;;;2.40;;
18931;SDS011;9598;50.954;3.112;2022-08-14T21:47:13;3.17;;;2.53;;
18931;SDS011;9598;50.954;3.112;2022-08-14T21:52:16;3.67;;;2.58;;
18931;SDS011;9598;50.954;3.112;2022-08-14T21:57:20;3.15;;;2.58;;
18931;SDS011;9598;50.954;3.112;2022-08-14T22:02:25;3.92;;;2.90;;
18931;SDS011;9598;50.954;3.112;2022-08-14T22:07:27;3.55;;;2.50;;
18931;SDS011;9598;50.954;3.112;2022-08-14T22:12:33;4.82;;;3.17;;
18931;SDS011;9598;50.954;3.112;2022-08-14T22:17:36;3.00;;;2.70;;
18931;SDS011;9598;50.954;3.112;2022-08-14T22:22:39;2.95;;;2.70;;
18931;SDS011;9598;50.954;3.112;2022-08-14T22:27:42;3.33;;;3.08;;
18931;SDS011;9598;50.954;3.112;2022-08-14T22:32:45;3.17;;;2.72;;
18931;SDS011;9598;50.954;3.112;2022-08-14T22:37:48;5.60;;;3.22;;
18931;SDS011;9598;50.954;3.112;2022-08-14T22:42:50;3.05;;;2.75;;
18931;SDS011;9598;50.954;3.112;2022-08-14T22:47:57;3.05;;;2.67;;
18931;SDS011;9598;50.954;3.112;2022-08-14T22:53:04;3.20;;;2.88;;
18931;SDS011;9598;50.954;3.112;2022-08-14T22:58:06;2.95;;;2.75;;
18931;SDS011;9598;50.954;3.112;2022-08-14T23:03:12;4.80;;;2.97;;
18931;SDS011;9598;50.954;3.112;2022-08-14T23:08:16;3.20;;;3.00;;
18931;SDS011;9598;50.954;3.112;2022-08-14T23:13:18;4.97;;;3.45;;
18931;SDS011;9598;50.954;3.112;2022-08-14T23:18:22;2.97;;;2.72;;
18931;SDS011;9598;50.954;3.112;2022-08-14T23:23:24;4.55;;;3.25;;
18931;SDS011;9598;50.954;3.112;2022-08-14T23:28:27;3.95;;;3.47;;
18931;SDS011;9598;50.954;3.112;2022-08-14T23:33:31;4.05;;;3.67;;
18931;SDS011;9598;50.954;3.112;2022-08-14T23:38:34;4.97;;;3.40;;
18931;SDS011;9598;50.954;3.112;2022-08-14T23:43:36;3.60;;;3.30;;
18931;SDS011;9598;50.954;3.112;2022-08-14T23:48:41;5.10;;;3.35;;
18931;SDS011;9598;50.954;3.112;2022-08-14T23:53:44;3.88;;;3.58;;
18931;SDS011;9598;50.954;3.112;2022-08-14T23:58:47;4.35;;;3.95;;
